Time;durP1;ratioP1;P1;durP2;ratioP2;P2;SDS_P1;SDS_P2;PMS_P1;PMS_P2;Temp;Humidity;BMP_temperature;BMP_pressure;BME280_temperature;BME280_humidity;BME280_pressure;Samples;Min_cycle;Max_cycle;Signal;HPM_P1;HPM_P2
2023/01/13 00:01:13;;;;;;;0.37;0.30;;;9.30;99.90;;;;;;4882844;29;20612;-94
2023/01/13 00:03:42;;;;;;;4.03;0.47;;;9.30;99.90;;;;;;4881649;29;20638;-93
2023/01/13 00:06:13;;;;;;;1.23;0.30;;;9.20;99.90;;;;;;4881937;29;20179;-93
2023/01/13 00:08:38;;;;;;;0.40;0.40;;;9.20;99.90;;;;;;4881780;29;20232;-93
2023/01/13 00:11:05;;;;;;;0.30;0.30;;;9.20;99.90;;;;;;4881920;29;20184;-92
2023/01/13 00:13:34;;;;;;;0.63;0.30;;;9.30;99.90;;;;;;4865712;29;20534;-92
2023/01/13 00:16:06;;;;;;;0.70;0.20;;;9.30;99.90;;;;;;4882420;29;20176;-94
2023/01/13 00:18:33;;;;;;;0.82;0.40;;;9.30;99.90;;;;;;4881235;29;20220;-93
2023/01/13 00:21:05;;;;;;;0.88;0.30;;;9.30;99.90;;;;;;4881998;29;20679;-92
2023/01/13 00:23:38;;;;;;;0.93;0.40;;;9.30;99.90;;;;;;4881063;29;20330;-93
2023/01/13 00:26:10;;;;;;;1.00;0.40;;;9.30;99.90;;;;;;4882442;29;20639;-92
2023/01/13 00:28:36;;;;;;;0.40;0.30;;;9.30;99.90;;;;;;4881440;29;20176;-90
2023/01/13 00:31:12;;;;;;;0.63;0.40;;;9.30;99.90;;;;;;4880786;29;20198;-93
2023/01/13 00:33:40;;;;;;;0.30;0.30;;;9.20;99.90;;;;;;4880340;29;20182;-92
2023/01/13 00:36:07;;;;;;;0.83;0.30;;;9.30;99.90;;;;;;4881422;29;20184;-94
2023/01/13 00:38:35;;;;;;;0.40;0.30;;;9.20;99.90;;;;;;4880972;29;20549;-89
2023/01/13 00:41:07;;;;;;;0.30;0.30;;;9.20;99.90;;;;;;4881214;29;20193;-91
2023/01/13 00:43:34;;;;;;;2.25;0.60;;;9.20;99.90;;;;;;4881017;29;20196;-91
2023/01/13 00:46:00;;;;;;;2.15;0.30;;;9.20;99.90;;;;;;4880906;29;20191;-93
2023/01/13 00:48:27;;;;;;;0.55;0.30;;;9.20;99.90;;;;;;4880265;29;20275;-89
2023/01/13 00:51:09;;;;;;;0.40;0.33;;;9.20;99.90;;;;;;4883601;29;20283;-94
2023/01/13 00:53:48;;;;;;;0.20;0.20;;;9.20;99.90;;;;;;4885789;29;20184;-91
2023/01/13 00:56:17;;;;;;;1.33;0.40;;;9.20;99.90;;;;;;4884286;29;20573;-89
2023/01/13 00:58:44;;;;;;;0.30;0.30;;;9.20;99.90;;;;;;4885832;29;20602;-88
2023/01/13 01:01:20;;;;;;;0.25;0.25;;;9.20;99.90;;;;;;4884324;29;20649;-93
2023/01/13 01:03:55;;;;;;;0.25;0.20;;;9.20;99.90;;;;;;4884200;29;20199;-91
2023/01/13 01:06:25;;;;;;;0.20;0.20;;;9.20;99.90;;;;;;4885850;29;20608;-88
2023/01/13 01:08:53;;;;;;;0.40;0.30;;;9.30;99.90;;;;;;4884192;29;20239;-91
2023/01/13 01:11:25;;;;;;;0.80;0.30;;;9.30;99.90;;;;;;4884052;29;20566;-92
2023/01/13 01:13:54;;;;;;;0.50;0.40;;;9.30;99.90;;;;;;4883918;29;20180;-89
2023/01/13 01:16:22;;;;;;;0.20;0.20;;;9.30;99.90;;;;;;4884393;29;20638;-93
2023/01/13 01:18:49;;;;;;;1.03;0.40;;;9.20;99.90;;;;;;4884424;29;20215;-95
2023/01/13 01:21:15;;;;;;;1.13;0.50;;;9.20;99.90;;;;;;4883901;29;20274;-91
2023/01/13 01:23:42;;;;;;;0.30;0.30;;;9.20;99.90;;;;;;4884978;29;20232;-93
2023/01/13 01:26:29;;;;;;;0.30;0.30;;;9.20;99.90;;;;;;4868357;29;20616;-90
2023/01/13 01:28:55;;;;;;;3.55;0.40;;;9.10;99.90;;;;;;4868804;29;20179;-91
2023/01/13 01:31:22;;;;;;;0.40;0.38;;;9.20;99.90;;;;;;4868057;29;20184;-90
2023/01/13 01:34:01;;;;;;;0.30;0.30;;;9.20;99.90;;;;;;4884390;29;20200;-95
2023/01/13 01:36:29;;;;;;;0.25;0.25;;;9.20;99.90;;;;;;4868400;29;20183;-90
2023/01/13 01:38:57;;;;;;;2.70;0.50;;;9.20;99.90;;;;;;4867932;29;20219;-94
2023/01/13 01:41:25;;;;;;;0.47;0.30;;;9.20;99.90;;;;;;4868263;29;20180;-91
2023/01/13 01:44:01;;;;;;;0.95;0.30;;;9.30;99.90;;;;;;4868383;29;20194;-91
2023/01/13 01:46:47;;;;;;;0.30;0.20;;;9.30;99.90;;;;;;4885128;29;20172;-89
2023/01/13 01:49:20;;;;;;;0.35;0.20;;;9.30;99.90;;;;;;4867957;29;20207;-92
2023/01/13 01:52:07;;;;;;;0.30;0.30;;;9.30;99.90;;;;;;4868004;29;20184;-92
2023/01/13 01:54:41;;;;;;;0.47;0.30;;;9.40;99.90;;;;;;4868153;29;20180;-94
2023/01/13 01:57:10;;;;;;;0.50;0.20;;;9.40;99.90;;;;;;4884831;29;20172;-93
2023/01/13 01:59:37;;;;;;;0.33;0.30;;;9.40;99.90;;;;;;4868118;29;20256;-94
2023/01/13 02:02:03;;;;;;;0.30;0.30;;;9.40;99.90;;;;;;4868777;29;20184;-91
2023/01/13 02:04:34;;;;;;;0.40;0.35;;;9.30;99.90;;;;;;4868809;29;20188;-92
2023/01/13 02:07:02;;;;;;;1.35;0.32;;;9.30;99.90;;;;;;4868388;29;20172;-95
2023/01/13 02:09:28;;;;;;;0.23;0.23;;;9.20;99.90;;;;;;4868974;29;20240;-93
2023/01/13 02:14:44;;;;;;;0.40;0.30;;;9.30;99.90;;;;;;4884876;29;20195;-90
2023/01/13 02:17:26;;;;;;;0.43;0.40;;;9.30;99.90;;;;;;4884867;29;20665;-94
2023/01/13 02:20:19;;;;;;;4.43;0.50;;;9.20;99.90;;;;;;4868562;29;20628;-94
2023/01/13 02:24:52;;;;;;;0.43;0.40;;;9.20;99.90;;;;;;4858995;29;20251;-95
2023/01/13 02:25:59;;;;;;;0.90;0.57;;;9.30;99.90;;;;;;4866253;29;20188;-94
2023/01/13 02:31:43;;;;;;;0.20;0.20;;;9.20;99.90;;;;;;4866569;29;20576;-91
2023/01/13 02:34:19;;;;;;;0.73;0.30;;;9.20;99.90;;;;;;4848921;29;20177;-91
2023/01/13 02:36:56;;;;;;;0.47;0.30;;;9.30;99.90;;;;;;4849719;29;20533;-94
2023/01/13 02:39:31;;;;;;;0.50;0.40;;;9.30;99.90;;;;;;4850033;29;20208;-88
2023/01/13 02:45:18;;;;;;;2.50;0.40;;;9.20;99.90;;;;;;4866025;29;20627;-91
2023/01/13 02:47:46;;;;;;;0.20;0.20;;;9.20;99.90;;;;;;4849083;29;20642;-93
2023/01/13 02:50:16;;;;;;;0.30;0.30;;;9.20;99.90;;;;;;5240977;23;20320;-91
2023/01/13 02:52:56;;;;;;;1.33;0.30;;;9.20;99.90;;;;;;4845545;29;20630;-90
2023/01/13 02:55:31;;;;;;;1.38;0.30;;;9.10;99.90;;;;;;4845694;29;20184;-91
2023/01/13 02:57:58;;;;;;;0.90;0.30;;;9.20;99.90;;;;;;4845590;29;20200;-92
2023/01/13 03:00:25;;;;;;;0.98;0.47;;;9.10;99.90;;;;;;4845797;29;20173;-91
2023/01/13 03:02:51;;;;;;;2.47;0.38;;;9.10;99.90;;;;;;4845156;29;20203;-91
2023/01/13 03:05:17;;;;;;;1.60;0.50;;;9.10;99.90;;;;;;4845462;29;20185;-91
2023/01/13 03:08:41;;;;;;;1.63;0.50;;;9.20;99.90;;;;;;4845404;29;20184;-91
2023/01/13 03:11:08;;;;;;;1.05;0.30;;;9.20;99.90;;;;;;4807932;29;20190;-91
2023/01/13 03:14:11;;;;;;;3.58;0.45;;;9.20;99.90;;;;;;4822707;29;20585;-92
2023/01/13 03:16:39;;;;;;;6.20;0.60;;;9.20;99.90;;;;;;4835233;29;20192;-91
2023/01/13 03:19:28;;;;;;;2.72;0.60;;;9.30;99.90;;;;;;4845358;29;20210;-90
2023/01/13 03:21:55;;;;;;;1.63;0.40;;;9.30;99.90;;;;;;4844992;29;20256;-91
2023/01/13 03:24:43;;;;;;;2.45;0.52;;;9.30;99.90;;;;;;4845020;29;20268;-91
2023/01/13 03:27:49;;;;;;;4.95;0.70;;;9.30;99.90;;;;;;4844691;29;20324;-90
2023/01/13 03:30:49;;;;;;;2.05;0.70;;;9.30;99.90;;;;;;4845213;29;20264;-90
2023/01/13 03:33:24;;;;;;;2.97;0.85;;;9.40;99.90;;;;;;4841934;29;20313;-91
2023/01/13 03:35:52;;;;;;;3.72;1.05;;;9.30;99.90;;;;;;4861639;29;20180;-90
2023/01/13 03:38:31;;;;;;;3.78;0.80;;;9.30;99.90;;;;;;4844880;29;20274;-92
2023/01/13 03:41:07;;;;;;;4.38;0.70;;;9.30;99.90;;;;;;4844669;29;20169;-91
2023/01/13 03:46:32;;;;;;;3.38;0.98;;;9.40;99.90;;;;;;4861943;29;20183;-92
2023/01/13 03:49:02;;;;;;;4.45;0.93;;;9.40;99.90;;;;;;4844715;29;20176;-91
2023/01/13 03:51:31;;;;;;;5.43;0.93;;;9.30;99.90;;;;;;4844335;29;20228;-92
2023/01/13 03:54:04;;;;;;;6.07;1.00;;;9.30;99.90;;;;;;4844348;29;20208;-91
2023/01/13 03:56:38;;;;;;;3.25;1.17;;;9.30;99.90;;;;;;4844925;29;20253;-91
2023/01/13 03:59:07;;;;;;;4.10;1.10;;;9.20;99.90;;;;;;4844367;29;20205;-91
2023/01/13 04:01:51;;;;;;;2.17;0.77;;;9.20;99.90;;;;;;4844564;29;20263;-91
2023/01/13 04:04:41;;;;;;;4.22;1.10;;;9.20;99.90;;;;;;4844191;29;20205;-92
2023/01/13 04:07:19;;;;;;;7.17;1.20;;;9.20;99.90;;;;;;4844823;29;20173;-91
2023/01/13 04:09:51;;;;;;;6.45;1.17;;;9.20;99.90;;;;;;4844383;29;20181;-92
2023/01/13 04:12:59;;;;;;;8.57;1.77;;;9.20;99.90;;;;;;4844475;29;20181;-91
2023/01/13 04:15:16;;;;;;;5.95;1.10;;;9.20;99.90;;;;;;4860248;29;20210;-91
2023/01/13 04:17:41;;;;;;;5.82;1.08;;;9.10;99.90;;;;;;4844564;29;20674;-91
2023/01/13 04:20:08;;;;;;;6.43;1.20;;;9.10;99.90;;;;;;4844337;29;20169;-91
2023/01/13 04:22:34;;;;;;;4.30;1.08;;;9.00;99.90;;;;;;4860914;29;20220;-91
2023/01/13 04:25:00;;;;;;;6.35;1.27;;;9.00;99.90;;;;;;4843535;29;20219;-91
2023/01/13 04:27:25;;;;;;;6.07;1.08;;;9.00;99.90;;;;;;4844345;29;20184;-92
2023/01/13 04:29:51;;;;;;;5.18;0.93;;;8.90;99.90;;;;;;4844346;29;20184;-91
2023/01/13 04:32:17;;;;;;;8.15;1.10;;;8.90;99.90;;;;;;4844275;29;20630;-92
2023/01/13 04:34:43;;;;;;;4.90;1.13;;;8.90;99.90;;;;;;4844281;29;20204;-91
2023/01/13 04:37:08;;;;;;;3.85;0.90;;;8.90;99.90;;;;;;4844599;29;20205;-92
2023/01/13 04:39:34;;;;;;;4.83;1.00;;;8.90;99.90;;;;;;4843974;29;20626;-91
2023/01/13 04:42:01;;;;;;;3.28;0.90;;;8.80;99.90;;;;;;4860821;29;20180;-90
2023/01/13 04:44:29;;;;;;;4.32;0.93;;;8.80;99.90;;;;;;4843761;29;20213;-90
2023/01/13 04:46:57;;;;;;;5.43;1.13;;;8.80;99.90;;;;;;4860914;29;20165;-91
2023/01/13 04:49:23;;;;;;;5.10;1.17;;;8.80;99.90;;;;;;4844131;29;20173;-91
2023/01/13 04:51:49;;;;;;;4.13;1.05;;;8.80;99.90;;;;;;4843679;29;20239;-90
2023/01/13 04:54:15;;;;;;;3.83;1.20;;;8.80;99.90;;;;;;4843686;29;20541;-91
2023/01/13 04:56:41;;;;;;;5.55;1.42;;;8.70;99.90;;;;;;4844127;29;20176;-91
2023/01/13 04:59:11;;;;;;;5.95;1.30;;;8.70;99.90;;;;;;4843857;29;20736;-91
2023/01/13 05:01:38;;;;;;;7.22;1.20;;;8.70;99.90;;;;;;4843718;29;20180;-91
2023/01/13 05:04:04;;;;;;;8.65;1.27;;;8.70;99.90;;;;;;4855132;29;20576;-90
2023/01/13 05:06:30;;;;;;;4.20;0.90;;;8.70;99.90;;;;;;4825695;29;20177;-91
2023/01/13 05:08:56;;;;;;;2.50;1.00;;;8.70;99.90;;;;;;4825889;29;20174;-92
2023/01/13 05:16:59;;;;;;;8.90;1.38;;;8.60;99.90;;;;;;4842209;29;20171;-91
2023/01/13 05:19:27;;;;;;;4.75;1.05;;;8.50;99.90;;;;;;4825211;29;20645;-92
2023/01/13 05:27:21;;;;;;;3.88;1.20;;;8.40;99.90;;;;;;4842084;29;20173;-91
2023/01/13 05:29:47;;;;;;;5.70;1.33;;;8.30;99.90;;;;;;4825422;29;20174;-90
2023/01/13 05:32:13;;;;;;;3.63;0.80;;;8.20;99.90;;;;;;4826549;29;20272;-91
2023/01/13 05:34:38;;;;;;;3.35;1.10;;;8.20;99.90;;;;;;4843632;29;20221;-91
2023/01/13 05:37:06;;;;;;;4.93;1.00;;;8.10;99.90;;;;;;4846509;29;20657;-91
2023/01/13 05:43:18;;;;;;;4.35;1.25;;;8.00;99.90;;;;;;4863532;29;20641;-91
2023/01/13 05:45:02;;;;;;;2.35;1.02;;;8.10;99.90;;;;;;4863485;29;20288;-92
2023/01/13 05:47:28;;;;;;;6.78;1.30;;;8.00;99.90;;;;;;4847372;29;20180;-92
2023/01/13 05:49:53;;;;;;;4.90;1.10;;;8.00;99.90;;;;;;4846544;29;20232;-90
2023/01/13 05:52:19;;;;;;;5.05;1.35;;;8.10;99.90;;;;;;4846899;29;20193;-91
2023/01/13 05:54:45;;;;;;;4.27;1.20;;;8.00;99.90;;;;;;4846717;29;20212;-92
2023/01/13 05:57:12;;;;;;;7.30;1.10;;;8.00;99.90;;;;;;4863115;29;20173;-91
2023/01/13 05:59:38;;;;;;;5.30;1.33;;;7.90;99.90;;;;;;4846896;29;20183;-92
2023/01/13 06:02:03;;;;;;;2.03;1.10;;;7.80;99.90;;;;;;4846744;29;20165;-91
2023/01/13 06:04:29;;;;;;;8.67;1.87;;;7.80;99.90;;;;;;4846757;29;20202;-91
2023/01/13 06:06:55;;;;;;;6.43;1.20;;;7.80;99.90;;;;;;4861672;29;20199;-91
2023/01/13 06:09:21;;;;;;;4.30;1.40;;;7.90;99.90;;;;;;4865395;29;20172;-93
2023/01/13 06:11:47;;;;;;;6.80;1.70;;;7.90;99.90;;;;;;4864996;29;20183;-92
2023/01/13 06:14:14;;;;;;;5.63;1.90;;;7.90;99.90;;;;;;4862849;29;20219;-92
2023/01/13 06:16:40;;;;;;;8.50;2.10;;;7.90;99.90;;;;;;4847181;29;20187;-91
2023/01/13 06:19:08;;;;;;;8.40;1.80;;;8.00;99.90;;;;;;4861166;29;20689;-91
2023/01/13 06:21:37;;;;;;;9.43;2.30;;;8.00;99.90;;;;;;4881606;29;20160;-90
2023/01/13 06:24:03;;;;;;;12.20;2.00;;;8.00;99.90;;;;;;4874234;29;20200;-92
2023/01/13 06:26:35;;;;;;;10.13;1.90;;;8.00;99.90;;;;;;4846041;29;20237;-90
2023/01/13 06:29:01;;;;;;;10.13;1.93;;;8.00;99.90;;;;;;4846302;29;20176;-90
2023/01/13 06:31:30;;;;;;;11.23;2.43;;;7.90;99.90;;;;;;4856417;29;20232;-90
2023/01/13 06:34:04;;;;;;;8.30;2.03;;;7.90;99.90;;;;;;4859303;29;20203;-90
2023/01/13 06:36:36;;;;;;;12.20;2.47;;;7.90;99.90;;;;;;4833887;29;20192;-90
2023/01/13 06:39:03;;;;;;;17.67;2.00;;;8.00;99.90;;;;;;4872470;29;20212;-91
2023/01/13 06:44:18;;;;;;;10.40;2.00;;;7.90;99.90;;;;;;4879927;29;20574;-90
2023/01/13 06:46:48;;;;;;;9.00;1.97;;;8.00;99.90;;;;;;4873270;29;20259;-92
2023/01/13 06:49:15;;;;;;;14.30;2.40;;;8.00;99.90;;;;;;4856466;29;20223;-93
2023/01/13 06:51:40;;;;;;;7.57;1.50;;;7.90;99.90;;;;;;4864031;29;20235;-91
2023/01/13 06:54:06;;;;;;;11.13;1.83;;;7.90;99.90;;;;;;4862806;29;20204;-90
2023/01/13 06:56:32;;;;;;;11.47;1.97;;;7.90;99.90;;;;;;4862527;29;20187;-91
2023/01/13 06:58:57;;;;;;;12.53;2.47;;;7.90;99.90;;;;;;4879153;29;20672;-90
2023/01/13 07:01:23;;;;;;;8.63;1.80;;;7.90;99.90;;;;;;4862456;29;20644;-91
2023/01/13 07:03:49;;;;;;;10.73;1.80;;;7.80;99.90;;;;;;4865741;29;20209;-91
2023/01/13 07:06:14;;;;;;;15.20;2.03;;;7.80;99.90;;;;;;4844589;29;20165;-91
2023/01/13 07:08:40;;;;;;;15.93;1.90;;;7.70;99.90;;;;;;4845364;29;20181;-90
2023/01/13 07:11:06;;;;;;;13.57;2.73;;;7.60;99.90;;;;;;4845690;29;20200;-91
2023/01/13 07:16:18;;;;;;;4.70;1.47;;;7.60;99.90;;;;;;4862207;29;20554;-90
2023/01/13 07:18:44;;;;;;;3.30;1.37;;;7.60;99.90;;;;;;4845484;29;20205;-91
2023/01/13 07:21:12;;;;;;;5.50;1.13;;;7.70;99.90;;;;;;4845194;29;20181;-90
2023/01/13 07:23:40;;;;;;;6.23;1.10;;;7.70;99.90;;;;;;4845062;29;20669;-90
2023/01/13 07:26:07;;;;;;;5.00;1.10;;;7.70;99.90;;;;;;4845378;29;20187;-91
2023/01/13 07:28:33;;;;;;;4.57;1.10;;;7.70;99.90;;;;;;4845175;29;20217;-91
2023/01/13 07:30:59;;;;;;;9.13;1.40;;;7.60;99.90;;;;;;4845070;29;20256;-91
2023/01/13 07:33:25;;;;;;;5.47;1.37;;;7.60;99.90;;;;;;4845011;29;20212;-92
2023/01/13 07:35:59;;;;;;;8.90;1.70;;;7.60;99.90;;;;;;4861603;29;20645;-90
2023/01/13 07:38:26;;;;;;;5.43;1.10;;;7.50;99.90;;;;;;4844864;29;20216;-90
2023/01/13 07:40:52;;;;;;;6.40;1.27;;;7.40;99.90;;;;;;4845246;29;20172;-91
2023/01/13 07:43:33;;;;;;;6.57;1.20;;;7.40;99.90;;;;;;4861518;29;20200;-90
2023/01/13 07:46:04;;;;;;;5.57;1.60;;;7.40;99.90;;;;;;4844995;29;20177;-91
2023/01/13 07:48:32;;;;;;;6.10;1.03;;;7.40;99.90;;;;;;4844687;29;20218;-91
2023/01/13 07:51:06;;;;;;;8.47;1.40;;;7.30;99.90;;;;;;4844408;29;20232;-91
2023/01/13 07:53:32;;;;;;;7.23;1.23;;;7.40;99.90;;;;;;4844904;29;20204;-89
2023/01/13 07:55:59;;;;;;;6.30;1.30;;;7.40;99.90;;;;;;4844393;29;20692;-91
2023/01/13 07:58:25;;;;;;;3.97;0.80;;;7.30;99.90;;;;;;4844521;29;20204;-90
2023/01/13 08:00:52;;;;;;;7.40;1.40;;;7.30;99.90;;;;;;4844303;29;20176;-90
2023/01/13 08:03:17;;;;;;;7.23;1.73;;;7.30;99.90;;;;;;4844435;29;20283;-90
2023/01/13 08:05:43;;;;;;;3.93;1.33;;;7.30;99.90;;;;;;4860932;29;20276;-90
2023/01/13 08:08:09;;;;;;;8.63;1.47;;;7.30;99.90;;;;;;4844275;29;20207;-90
2023/01/13 08:10:36;;;;;;;8.77;1.67;;;7.30;99.90;;;;;;4860783;29;20176;-89
2023/01/13 08:13:21;;;;;;;6.63;1.53;;;7.40;99.90;;;;;;4844196;29;20208;-89
2023/01/13 08:16:01;;;;;;;7.70;1.60;;;7.40;99.90;;;;;;4843951;29;20181;-89
2023/01/13 08:18:27;;;;;;;8.70;1.17;;;7.50;99.90;;;;;;4843908;29;20210;-90
2023/01/13 08:20:53;;;;;;;5.40;1.40;;;7.60;99.90;;;;;;4843935;29;20267;-89
2023/01/13 08:23:21;;;;;;;7.53;1.30;;;7.60;99.90;;;;;;4844544;29;20768;-90
2023/01/13 08:25:47;;;;;;;6.07;1.80;;;7.70;99.90;;;;;;4844105;29;20200;-90
2023/01/13 08:28:14;;;;;;;9.23;1.50;;;7.80;99.90;;;;;;4844307;29;20185;-90
2023/01/13 08:30:40;;;;;;;12.00;1.43;;;7.90;99.90;;;;;;4844165;29;20181;-90
2023/01/13 08:33:07;;;;;;;6.10;1.23;;;7.90;99.90;;;;;;4843953;29;20695;-90
2023/01/13 08:35:36;;;;;;;4.50;1.17;;;7.90;99.90;;;;;;4843943;29;20267;-91
2023/01/13 08:38:03;;;;;;;8.90;1.70;;;7.90;99.90;;;;;;4843802;29;20211;-90
2023/01/13 08:40:28;;;;;;;9.37;1.47;;;7.90;99.90;;;;;;4844021;29;20184;-90
2023/01/13 08:42:55;;;;;;;14.77;1.77;;;7.90;99.90;;;;;;4843844;29;20225;-90
2023/01/13 08:45:21;;;;;;;11.60;1.17;;;7.90;99.90;;;;;;4843845;29;20173;-90
2023/01/13 08:47:47;;;;;;;4.90;1.13;;;7.90;99.90;;;;;;4843846;29;20649;-92
2023/01/13 08:50:13;;;;;;;9.80;1.30;;;7.90;99.90;;;;;;4843681;29;20233;-90
2023/01/13 08:52:40;;;;;;;7.23;1.30;;;7.90;99.90;;;;;;4843827;29;20552;-91
2023/01/13 08:55:06;;;;;;;10.50;1.60;;;7.90;99.90;;;;;;4843730;29;20184;-90
2023/01/13 08:57:32;;;;;;;8.20;1.53;;;8.00;99.90;;;;;;4843734;29;20204;-90
2023/01/13 08:59:58;;;;;;;11.97;1.33;;;7.90;99.90;;;;;;4843924;29;20181;-90
2023/01/13 09:02:25;;;;;;;7.33;1.63;;;8.00;99.90;;;;;;4843953;29;20188;-91
2023/01/13 09:04:51;;;;;;;12.43;1.73;;;8.00;99.90;;;;;;4843653;29;20548;-90
2023/01/13 09:07:20;;;;;;;9.30;1.27;;;8.00;99.90;;;;;;4843602;29;20537;-90
2023/01/13 09:09:45;;;;;;;6.60;1.20;;;8.00;99.90;;;;;;4843739;29;20181;-89
2023/01/13 09:14:57;;;;;;;8.97;1.77;;;8.00;99.90;;;;;;4863982;29;20764;-90
2023/01/13 09:17:23;;;;;;;8.10;1.67;;;8.00;99.90;;;;;;4847229;29;20237;-89
2023/01/13 09:19:49;;;;;;;6.70;1.73;;;7.90;99.90;;;;;;4863866;29;20173;-89
2023/01/13 09:22:17;;;;;;;7.70;1.30;;;8.00;99.90;;;;;;4847260;29;20267;-90
2023/01/13 09:24:43;;;;;;;9.03;1.50;;;8.00;99.90;;;;;;4847076;29;20196;-90
2023/01/13 09:27:14;;;;;;;16.27;1.60;;;8.10;99.90;;;;;;4846841;29;20188;-90
2023/01/13 09:29:40;;;;;;;7.90;1.50;;;8.10;99.90;;;;;;4847104;29;20293;-91
2023/01/13 09:32:06;;;;;;;3.40;0.87;;;8.20;99.90;;;;;;4847035;29;20185;-90
2023/01/13 09:37:17;;;;;;;5.40;1.10;;;8.20;99.90;;;;;;4863755;29;20173;-89
2023/01/13 09:39:43;;;;;;;5.37;1.13;;;8.20;99.90;;;;;;4846764;29;20490;-90
2023/01/13 09:45:37;;;;;;;6.43;1.13;;;8.20;99.90;;;;;;4863713;29;20233;-89
2023/01/13 09:48:12;;;;;;;6.77;1.37;;;8.20;99.90;;;;;;4863439;29;20289;-89
2023/01/13 09:50:56;;;;;;;5.60;1.20;;;8.20;99.90;;;;;;4846725;29;20881;-92
2023/01/13 09:53:35;;;;;;;5.80;1.00;;;8.20;99.90;;;;;;4846667;29;20288;-91
2023/01/13 09:56:01;;;;;;;9.70;1.60;;;8.30;99.90;;;;;;4846639;29;20212;-90
2023/01/13 09:58:27;;;;;;;8.73;1.43;;;8.40;99.90;;;;;;4846724;29;20668;-90
2023/01/13 10:01:34;;;;;;;8.17;2.00;;;8.40;99.90;;;;;;4846752;29;20650;-90
2023/01/13 10:04:10;;;;;;;10.53;1.43;;;8.40;99.90;;;;;;4838690;29;20287;-89
2023/01/13 10:06:41;;;;;;;9.70;1.67;;;8.50;99.90;;;;;;4846400;29;20183;-90
2023/01/13 10:09:45;;;;;;;5.93;1.43;;;8.60;99.90;;;;;;4846554;29;20177;-90
2023/01/13 10:15:02;;;;;;;11.40;1.60;;;8.70;99.90;;;;;;4862635;29;20223;-89
2023/01/13 10:17:50;;;;;;;5.70;1.70;;;8.70;99.90;;;;;;4846267;29;20184;-90
2023/01/13 10:20:49;;;;;;;6.47;1.60;;;8.70;99.90;;;;;;4845766;29;20264;-90
2023/01/13 10:23:54;;;;;;;7.67;1.20;;;8.70;99.90;;;;;;4839727;29;20220;-90
2023/01/13 10:26:49;;;;;;;9.43;1.80;;;8.70;99.90;;;;;;4845443;29;20221;-90
2023/01/13 10:29:24;;;;;;;11.00;1.77;;;8.70;99.90;;;;;;4846085;29;20192;-90
2023/01/13 10:31:52;;;;;;;7.57;1.37;;;8.70;99.90;;;;;;4845964;29;20664;-91
2023/01/13 10:34:19;;;;;;;8.30;1.27;;;8.70;99.90;;;;;;4845852;29;20223;-90
2023/01/13 10:37:06;;;;;;;7.77;1.73;;;8.70;99.90;;;;;;4845966;29;20191;-89
2023/01/13 10:39:45;;;;;;;8.23;1.57;;;8.70;99.90;;;;;;4845868;29;20208;-90
2023/01/13 10:42:18;;;;;;;8.00;1.40;;;8.60;99.90;;;;;;4846069;29;20191;-90
2023/01/13 10:44:52;;;;;;;8.63;1.70;;;8.60;99.90;;;;;;4862211;29;20204;-90
2023/01/13 10:47:22;;;;;;;10.70;1.37;;;8.70;99.90;;;;;;4845528;29;20177;-91
2023/01/13 10:50:10;;;;;;;13.15;1.80;;;8.70;99.90;;;;;;4845562;29;20180;-89
2023/01/13 10:52:41;;;;;;;7.37;1.80;;;8.70;99.90;;;;;;4862209;29;20193;-91
2023/01/13 10:55:32;;;;;;;5.60;1.40;;;8.70;99.90;;;;;;4845772;29;20263;-91
2023/01/13 10:58:18;;;;;;;12.17;1.60;;;8.70;99.90;;;;;;4845431;29;20212;-90
2023/01/13 11:00:44;;;;;;;6.40;1.23;;;8.70;99.90;;;;;;4845486;29;20646;-91
2023/01/13 11:03:35;;;;;;;10.23;1.37;;;8.60;99.90;;;;;;4845517;29;20261;-90
2023/01/13 11:06:01;;;;;;;7.77;1.40;;;8.60;99.90;;;;;;4845300;29;20177;-91
2023/01/13 11:08:48;;;;;;;6.73;1.87;;;8.60;99.90;;;;;;4862032;29;20229;-90
2023/01/13 11:11:36;;;;;;;11.37;1.50;;;8.60;99.90;;;;;;4844681;29;20237;-88
2023/01/13 11:16:57;;;;;;;11.00;1.63;;;8.60;99.90;;;;;;4862281;29;20229;-91
2023/01/13 11:19:26;;;;;;;7.10;1.53;;;8.60;99.90;;;;;;4861894;29;20204;-89
2023/01/13 11:21:55;;;;;;;6.47;1.40;;;8.60;99.90;;;;;;4845363;29;20188;-91
2023/01/13 11:24:38;;;;;;;7.43;1.70;;;8.70;99.90;;;;;;4845217;29;20265;-90
2023/01/13 11:27:37;;;;;;;4.97;1.40;;;8.60;99.90;;;;;;4845267;29;20173;-92
2023/01/13 11:30:21;;;;;;;7.77;1.30;;;8.60;99.90;;;;;;4844369;29;20676;-90
2023/01/13 11:33:03;;;;;;;9.00;1.30;;;8.60;99.90;;;;;;4844754;29;20196;-90
2023/01/13 11:35:32;;;;;;;10.10;1.37;;;8.60;99.90;;;;;;4861494;29;20217;-90
2023/01/13 11:38:08;;;;;;;7.27;2.20;;;8.60;99.90;;;;;;4845073;29;20196;-91
2023/01/13 11:40:41;;;;;;;7.90;1.47;;;8.60;99.90;;;;;;4845098;29;20173;-90
2023/01/13 11:43:30;;;;;;;9.90;1.30;;;8.60;99.90;;;;;;4844601;29;20200;-91
2023/01/13 11:45:59;;;;;;;12.67;1.70;;;8.60;99.90;;;;;;4844814;29;20252;-90
2023/01/13 11:48:32;;;;;;;7.00;1.80;;;8.60;99.90;;;;;;4844831;29;20268;-91
2023/01/13 11:51:13;;;;;;;7.03;1.43;;;8.50;99.90;;;;;;4844294;29;20292;-90
2023/01/13 11:54:00;;;;;;;4.27;1.27;;;8.40;99.90;;;;;;4844586;29;20204;-91
2023/01/13 11:56:47;;;;;;;6.67;0.93;;;8.50;99.90;;;;;;4844725;29;20177;-90
2023/01/13 11:59:18;;;;;;;6.57;1.33;;;8.50;99.90;;;;;;4844751;29;20197;-90
2023/01/13 12:02:28;;;;;;;7.60;1.20;;;8.60;99.90;;;;;;4844444;29;20165;-91
2023/01/13 12:05:15;;;;;;;6.87;1.17;;;8.60;99.90;;;;;;4826133;29;20197;-90
2023/01/13 12:07:59;;;;;;;9.43;1.40;;;8.60;99.90;;;;;;4826279;29;20189;-90
2023/01/13 12:10:40;;;;;;;9.30;1.70;;;8.60;99.90;;;;;;4826067;29;20173;-91
2023/01/13 12:13:29;;;;;;;8.13;2.30;;;8.70;99.90;;;;;;4826052;29;20216;-90
2023/01/13 12:15:59;;;;;;;9.43;1.47;;;8.70;99.90;;;;;;4820166;29;20189;-91
2023/01/13 12:18:41;;;;;;;5.93;1.33;;;8.80;99.90;;;;;;4844012;29;20196;-90
2023/01/13 12:21:24;;;;;;;7.90;1.70;;;8.90;99.90;;;;;;4844284;29;20537;-90
2023/01/13 12:24:24;;;;;;;9.53;1.40;;;9.00;99.90;;;;;;4844027;29;20208;-89
2023/01/13 12:27:11;;;;;;;7.13;1.40;;;9.00;99.90;;;;;;4844104;29;20172;-90
2023/01/13 12:29:38;;;;;;;8.93;1.60;;;8.90;99.90;;;;;;4844287;29;20240;-92
2023/01/13 12:32:09;;;;;;;8.50;1.67;;;8.90;99.90;;;;;;4844266;29;20173;-90
2023/01/13 12:35:05;;;;;;;4.83;1.77;;;9.00;99.90;;;;;;4844040;29;20687;-90
2023/01/13 12:37:51;;;;;;;6.88;1.33;;;9.00;99.90;;;;;;4844043;29;20263;-91
2023/01/13 12:40:42;;;;;;;6.67;1.30;;;9.00;99.90;;;;;;4844255;29;20204;-91
2023/01/13 12:46:22;;;;;;;6.63;1.70;;;9.00;99.90;;;;;;4860023;29;20249;-90
2023/01/13 12:48:55;;;;;;;8.33;2.10;;;9.00;99.90;;;;;;4844158;29;20176;-91
2023/01/13 12:51:24;;;;;;;9.88;1.55;;;9.00;99.90;;;;;;4860133;29;20224;-89
2023/01/13 12:53:50;;;;;;;7.90;1.60;;;9.00;99.90;;;;;;4843759;29;20273;-90
2023/01/13 12:56:28;;;;;;;6.67;1.50;;;9.10;99.90;;;;;;4844014;29;20181;-91
2023/01/13 12:59:20;;;;;;;9.43;1.60;;;9.00;99.90;;;;;;4844066;29;20627;-90
2023/01/13 13:02:10;;;;;;;8.80;1.80;;;9.10;99.90;;;;;;4809422;29;20193;-89
2023/01/13 13:05:08;;;;;;;6.53;1.50;;;9.10;99.90;;;;;;4843439;29;20207;-91
2023/01/13 13:07:44;;;;;;;8.00;1.53;;;9.20;99.90;;;;;;4752414;30;20245;-91
2023/01/13 13:10:29;;;;;;;9.60;1.83;;;9.10;99.90;;;;;;4860356;29;20196;-90
2023/01/13 13:13:18;;;;;;;6.03;1.33;;;9.10;99.90;;;;;;4843644;29;20709;-91
2023/01/13 13:15:50;;;;;;;10.97;1.60;;;9.00;99.90;;;;;;4843559;29;20181;-90
2023/01/13 13:18:15;;;;;;;8.97;1.80;;;9.00;99.90;;;;;;4843894;29;20208;-90
2023/01/13 13:20:59;;;;;;;6.82;1.30;;;8.90;99.90;;;;;;4843977;29;20225;-90
2023/01/13 13:23:34;;;;;;;11.23;2.00;;;8.90;99.90;;;;;;4843374;29;20713;-89
2023/01/13 13:26:15;;;;;;;8.33;1.67;;;8.80;99.90;;;;;;4843872;29;20176;-91
2023/01/13 13:29:07;;;;;;;12.63;2.08;;;8.80;99.90;;;;;;4843940;29;20721;-91
2023/01/13 13:31:55;;;;;;;8.40;1.63;;;8.70;99.90;;;;;;4843703;29;20177;-90
2023/01/13 13:34:52;;;;;;;7.23;1.43;;;8.70;99.90;;;;;;4801902;29;20247;-90
2023/01/13 13:46:45;;;;;;;15.10;1.90;;;8.70;99.90;;;;;;4843609;29;20184;-91
2023/01/13 13:48:52;;;;;;;8.87;1.43;;;8.80;99.90;;;;;;4860213;29;20229;-91
2023/01/13 13:51:43;;;;;;;10.03;2.03;;;8.90;99.90;;;;;;4843133;29;20322;-91
2023/01/13 13:54:13;;;;;;;11.47;2.23;;;8.80;99.90;;;;;;4859761;29;20200;-91
2023/01/13 13:56:43;;;;;;;8.70;1.70;;;8.80;99.90;;;;;;4844594;29;20192;-91
2023/01/13 13:59:18;;;;;;;9.17;1.70;;;8.80;99.90;;;;;;4846698;29;20212;-90
2023/01/13 14:01:48;;;;;;;6.63;1.63;;;8.80;99.90;;;;;;4846891;29;20543;-90
2023/01/13 14:04:21;;;;;;;8.37;1.70;;;8.70;99.90;;;;;;4846515;29;20207;-89
2023/01/13 14:06:59;;;;;;;12.67;2.00;;;8.60;99.90;;;;;;4846688;29;20204;-91
2023/01/13 14:09:30;;;;;;;11.77;2.20;;;8.40;99.90;;;;;;4846644;29;20173;-89
2023/01/13 14:12:07;;;;;;;11.20;1.70;;;8.30;99.90;;;;;;4846324;29;20183;-91
2023/01/13 14:14:33;;;;;;;9.83;2.00;;;8.20;99.90;;;;;;4846237;29;20215;-91
2023/01/13 14:16:59;;;;;;;9.10;1.67;;;8.10;99.90;;;;;;4846090;29;20569;-89
2023/01/13 14:19:34;;;;;;;13.70;2.20;;;8.00;99.90;;;;;;4846063;29;20231;-88
2023/01/13 14:22:01;;;;;;;11.40;1.93;;;7.90;99.90;;;;;;4846377;29;20179;-91
2023/01/13 14:24:28;;;;;;;13.73;2.67;;;7.80;99.90;;;;;;4846034;29;20291;-91